Time;durP1;ratioP1;P1;durP2;ratioP2;P2;SDS_P1;SDS_P2;PMS_P1;PMS_P2;Temp;Humidity;BMP_temperature;BMP_pressure;BME280_temperature;BME280_humidity;BME280_pressure;Samples;Min_cycle;Max_cycle;Signal;HPM_P1;HPM_P2
2021/08/19 00:01:55;;;;;;;28.58;11.75;;;13.20;99.90;;;;;;5016253;28;20184;-86
2021/08/19 00:04:21;;;;;;;24.25;11.35;;;13.20;99.90;;;;;;5034336;28;20514;-87
2021/08/19 00:06:46;;;;;;;25.10;10.85;;;13.20;99.90;;;;;;5033773;28;20177;-87
2021/08/19 00:09:12;;;;;;;20.48;12.40;;;13.20;99.90;;;;;;5015779;28;20185;-87
2021/08/19 00:11:38;;;;;;;23.70;12.60;;;13.20;99.90;;;;;;5015684;28;20231;-87
2021/08/19 00:14:03;;;;;;;18.88;11.38;;;13.20;99.90;;;;;;5015373;28;20688;-87
2021/08/19 00:16:29;;;;;;;21.75;11.52;;;13.20;99.90;;;;;;5015409;28;20648;-87
2021/08/19 00:18:55;;;;;;;17.98;10.80;;;13.20;99.90;;;;;;5034022;28;20231;-87
2021/08/19 00:21:20;;;;;;;21.17;11.45;;;13.20;99.90;;;;;;5034155;28;20177;-86
2021/08/19 00:23:46;;;;;;;20.25;11.57;;;13.20;99.90;;;;;;5034115;28;20641;-87
2021/08/19 00:26:12;;;;;;;20.40;11.88;;;13.10;99.90;;;;;;5033303;28;20172;-87
2021/08/19 00:28:37;;;;;;;20.20;12.43;;;13.10;99.90;;;;;;5033212;28;20511;-87
2021/08/19 00:31:03;;;;;;;22.55;11.43;;;13.10;99.90;;;;;;5015109;28;20604;-87
2021/08/19 00:33:29;;;;;;;24.15;12.85;;;13.10;99.90;;;;;;5032683;28;20249;-87
2021/08/19 00:35:56;;;;;;;21.88;11.00;;;13.10;99.90;;;;;;5015463;28;20621;-87
2021/08/19 00:38:24;;;;;;;21.98;11.00;;;13.10;99.90;;;;;;5032779;28;20653;-86
2021/08/19 00:40:50;;;;;;;21.23;11.40;;;13.10;99.90;;;;;;5033015;28;20669;-85
2021/08/19 00:43:15;;;;;;;18.17;11.23;;;13.00;99.90;;;;;;5015295;28;20305;-87
2021/08/19 00:45:41;;;;;;;19.02;11.32;;;13.00;99.90;;;;;;5015250;28;20622;-86
2021/08/19 00:48:07;;;;;;;24.02;11.57;;;13.00;99.90;;;;;;4999052;28;20188;-87
2021/08/19 00:50:33;;;;;;;21.40;10.77;;;13.00;99.90;;;;;;5032914;28;20188;-87
2021/08/19 00:53:00;;;;;;;21.40;10.63;;;13.00;99.90;;;;;;4998865;28;20180;-86
2021/08/19 00:55:26;;;;;;;19.63;10.70;;;13.00;99.90;;;;;;5032633;28;20200;-86
2021/08/19 00:57:53;;;;;;;19.92;10.93;;;13.00;99.90;;;;;;5032908;28;20226;-85
2021/08/19 01:00:19;;;;;;;20.90;11.05;;;13.00;99.90;;;;;;5035450;28;20179;-88
2021/08/19 01:02:46;;;;;;;18.85;10.80;;;13.00;99.90;;;;;;5002806;28;20177;-88
2021/08/19 01:05:14;;;;;;;17.55;10.40;;;12.90;99.90;;;;;;5018876;28;20223;-88
2021/08/19 01:07:40;;;;;;;18.50;10.82;;;13.00;99.90;;;;;;5036352;28;20173;-88
2021/08/19 01:10:07;;;;;;;18.05;10.23;;;12.90;99.90;;;;;;5036691;28;20169;-88
2021/08/19 01:12:33;;;;;;;17.40;10.38;;;12.90;99.90;;;;;;5002300;28;20204;-89
2021/08/19 01:14:59;;;;;;;17.77;9.82;;;12.90;99.90;;;;;;5036395;28;20204;-88
2021/08/19 01:17:28;;;;;;;19.23;10.32;;;12.80;99.90;;;;;;5002003;28;20176;-87
2021/08/19 01:19:53;;;;;;;20.00;10.48;;;12.80;99.90;;;;;;5036098;28;20183;-89
2021/08/19 01:22:19;;;;;;;15.32;9.68;;;12.80;99.90;;;;;;5036233;28;20169;-88
2021/08/19 01:24:45;;;;;;;17.38;10.50;;;12.80;99.90;;;;;;5018568;28;20246;-88
2021/08/19 01:27:15;;;;;;;20.27;10.57;;;12.80;99.90;;;;;;5036291;28;20177;-88
2021/08/19 01:29:43;;;;;;;19.15;10.65;;;12.80;99.90;;;;;;5035787;28;20224;-85
2021/08/19 01:32:10;;;;;;;26.67;11.30;;;12.80;99.90;;;;;;5036257;28;20243;-85
2021/08/19 01:34:37;;;;;;;17.65;10.30;;;12.70;99.90;;;;;;5001930;28;20216;-87
2021/08/19 01:37:03;;;;;;;19.17;10.80;;;12.80;99.90;;;;;;5018552;28;20172;-86
2021/08/19 01:39:29;;;;;;;17.85;10.10;;;12.70;99.90;;;;;;5018215;28;20256;-86
2021/08/19 01:41:55;;;;;;;16.88;10.70;;;12.70;99.90;;;;;;5018437;28;20184;-86
2021/08/19 01:44:21;;;;;;;17.77;10.10;;;12.60;99.90;;;;;;5001827;28;20279;-86
2021/08/19 01:47:00;;;;;;;16.25;10.18;;;12.60;99.90;;;;;;5035847;28;20523;-86
2021/08/19 01:49:27;;;;;;;18.38;10.75;;;12.60;99.90;;;;;;5035689;28;20226;-86
2021/08/19 01:51:53;;;;;;;16.13;9.55;;;12.60;99.90;;;;;;5035688;28;20176;-86
2021/08/19 01:54:18;;;;;;;26.23;10.43;;;12.60;99.90;;;;;;5035732;28;20687;-86
2021/08/19 01:56:44;;;;;;;14.63;9.52;;;12.50;99.90;;;;;;5018082;28;20238;-88
2021/08/19 01:59:11;;;;;;;21.80;10.10;;;12.60;99.90;;;;;;5035792;28;20181;-87
2021/08/19 02:01:37;;;;;;;19.05;10.40;;;12.50;99.90;;;;;;5035491;28;20176;-86
2021/08/19 02:04:04;;;;;;;21.10;10.00;;;12.50;99.90;;;;;;5001648;28;20192;-86
2021/08/19 02:06:30;;;;;;;15.57;9.70;;;12.50;99.90;;;;;;5001446;28;20184;-87
2021/08/19 02:08:56;;;;;;;17.02;9.35;;;12.60;99.90;;;;;;5017780;28;20198;-87
2021/08/19 02:11:24;;;;;;;19.58;10.32;;;;;;;;;;5034273;28;20183;-87
2021/08/19 02:13:49;;;;;;;17.25;9.48;;;12.50;99.90;;;;;;5017762;28;20541;-88
2021/08/19 02:16:15;;;;;;;18.98;10.43;;;;;;;;;;5035315;28;20183;-87
2021/08/19 02:18:41;;;;;;;16.65;10.30;;;12.50;99.90;;;;;;5017412;28;20231;-87
2021/08/19 02:21:07;;;;;;;16.20;10.15;;;;;;;;;;5017395;28;20180;-88
2021/08/19 02:23:34;;;;;;;17.58;9.90;;;12.50;99.90;;;;;;5035059;28;20176;-88
2021/08/19 02:26:00;;;;;;;19.52;11.25;;;12.70;99.90;;;;;;5035150;28;20188;-86
2021/08/19 02:28:25;;;;;;;16.88;10.18;;;12.50;99.90;;;;;;5034777;28;20227;-86
2021/08/19 02:30:51;;;;;;;18.95;10.27;;;;;;;;;;5034886;28;20613;-88
2021/08/19 02:33:17;;;;;;;18.08;9.45;;;12.50;99.90;;;;;;5035080;28;20183;-88
2021/08/19 02:35:43;;;;;;;20.80;10.18;;;12.50;99.90;;;;;;5034473;28;20220;-88
2021/08/19 02:38:09;;;;;;;15.48;9.45;;;;;;;;;;5016820;28;20547;-88
2021/08/19 02:40:36;;;;;;;15.13;9.50;;;12.50;99.90;;;;;;5035072;28;20520;-88
2021/08/19 02:43:05;;;;;;;19.88;10.82;;;12.50;99.90;;;;;;5034501;28;20575;-89
2021/08/19 02:45:31;;;;;;;17.15;9.88;;;12.40;99.90;;;;;;5016887;28;20716;-88
2021/08/19 02:47:57;;;;;;;16.80;9.90;;;12.40;99.90;;;;;;5034707;28;20255;-88
2021/08/19 02:50:23;;;;;;;16.95;10.15;;;;;;;;;;5034761;28;20204;-89
2021/08/19 02:52:49;;;;;;;19.42;10.13;;;12.40;99.90;;;;;;5034487;28;20176;-87
2021/08/19 02:55:15;;;;;;;20.15;9.70;;;;;;;;;;5000441;28;20211;-86
2021/08/19 02:57:41;;;;;;;19.23;10.25;;;12.40;99.90;;;;;;5034115;28;20525;-87
2021/08/19 03:00:07;;;;;;;17.33;9.32;;;12.30;99.90;;;;;;5034427;28;20227;-89
2021/08/19 03:02:33;;;;;;;20.75;10.10;;;12.40;99.90;;;;;;5034802;28;20176;-89
2021/08/19 03:04:59;;;;;;;20.38;9.68;;;12.40;99.90;;;;;;5017254;28;20223;-87
2021/08/19 03:07:25;;;;;;;19.35;10.15;;;12.30;99.90;;;;;;5017275;28;20630;-87
2021/08/19 03:09:51;;;;;;;18.42;10.00;;;12.30;99.90;;;;;;5035021;28;20624;-87
2021/08/19 03:12:17;;;;;;;21.02;10.70;;;12.40;99.90;;;;;;5017679;28;20212;-87
2021/08/19 03:14:43;;;;;;;16.60;9.60;;;12.40;99.90;;;;;;5016714;28;20689;-87
2021/08/19 03:17:08;;;;;;;18.80;10.40;;;12.40;99.90;;;;;;5034281;28;20222;-88
2021/08/19 03:19:35;;;;;;;18.13;10.30;;;12.40;99.90;;;;;;5016082;28;20184;-87
2021/08/19 03:22:01;;;;;;;17.15;9.98;;;12.30;99.90;;;;;;5016377;28;20210;-86
2021/08/19 03:24:28;;;;;;;20.50;10.10;;;12.40;99.90;;;;;;5034381;28;20176;-87
2021/08/19 03:26:54;;;;;;;20.77;11.15;;;12.40;99.90;;;;;;5016504;28;20183;-87
2021/08/19 03:29:20;;;;;;;21.75;10.55;;;12.40;99.90;;;;;;5033868;28;20177;-87
2021/08/19 03:31:46;;;;;;;19.75;10.75;;;;;;;;;;5016452;28;20173;-87
2021/08/19 03:34:12;;;;;;;24.35;10.05;;;12.40;99.90;;;;;;5016150;28;20223;-87
2021/08/19 03:36:38;;;;;;;17.15;9.98;;;12.50;99.90;;;;;;5016348;28;20633;-87
2021/08/19 03:39:05;;;;;;;18.55;9.65;;;12.50;99.90;;;;;;5016346;28;20180;-89
2021/08/19 03:41:31;;;;;;;16.95;9.00;;;12.50;99.90;;;;;;5016511;28;20172;-88
2021/08/19 03:43:57;;;;;;;17.75;9.25;;;12.60;99.90;;;;;;5017442;28;20188;-91
2021/08/19 03:46:23;;;;;;;23.42;9.00;;;12.60;99.90;;;;;;5034872;28;20246;-90
2021/08/19 03:48:49;;;;;;;15.73;9.02;;;12.60;99.90;;;;;;5034907;28;20222;-89
2021/08/19 03:51:15;;;;;;;14.05;9.07;;;12.60;99.90;;;;;;5034980;28;20621;-91
2021/08/19 03:53:41;;;;;;;19.00;8.70;;;;;;;;;;5017171;28;20231;-91
2021/08/19 03:56:07;;;;;;;17.55;8.65;;;12.60;99.90;;;;;;5016518;28;20330;-90
2021/08/19 03:58:33;;;;;;;20.60;9.45;;;12.60;99.90;;;;;;5016103;28;20271;-89
2021/08/19 04:01:03;;;;;;;17.52;9.30;;;12.70;99.90;;;;;;5033156;28;20578;-89
2021/08/19 04:03:29;;;;;;;18.95;8.73;;;13.00;99.90;;;;;;5015829;28;20249;-86
2021/08/19 04:05:55;;;;;;;16.38;9.38;;;12.60;99.90;;;;;;5015362;28;20184;-87
2021/08/19 04:08:21;;;;;;;19.92;9.40;;;12.60;99.90;;;;;;5015729;28;20652;-87
2021/08/19 04:10:46;;;;;;;15.35;9.30;;;12.60;99.90;;;;;;4999203;28;20188;-86
2021/08/19 04:13:13;;;;;;;15.85;9.57;;;12.60;99.90;;;;;;5033142;28;20177;-87
2021/08/19 04:15:39;;;;;;;17.35;9.85;;;12.60;99.90;;;;;;5032934;28;20204;-87
2021/08/19 04:18:05;;;;;;;17.77;8.80;;;;;;;;;;4999142;28;20190;-88
2021/08/19 04:20:31;;;;;;;19.33;8.95;;;12.70;99.90;;;;;;5033021;28;20179;-88
2021/08/19 04:22:56;;;;;;;13.77;8.50;;;12.80;99.90;;;;;;5015697;28;20180;-87
2021/08/19 04:25:22;;;;;;;15.60;9.20;;;12.80;99.90;;;;;;5015489;28;20181;-86
2021/08/19 04:27:48;;;;;;;18.27;9.20;;;;;;;;;;5015618;28;20191;-86
2021/08/19 04:30:14;;;;;;;18.38;9.90;;;12.90;99.90;;;;;;5011863;28;20281;-88
2021/08/19 04:32:40;;;;;;;14.35;8.00;;;;;;;;;;5012487;28;20180;-86
2021/08/19 04:35:06;;;;;;;19.05;9.27;;;13.00;99.90;;;;;;5012861;28;20572;-88
2021/08/19 04:37:34;;;;;;;19.58;8.10;;;13.00;99.90;;;;;;5016334;28;20281;-87
2021/08/19 04:39:59;;;;;;;16.35;9.13;;;13.00;99.90;;;;;;5016300;28;20173;-88
2021/08/19 04:42:25;;;;;;;17.05;8.88;;;13.00;99.90;;;;;;5015143;28;20188;-87
2021/08/19 04:44:52;;;;;;;16.05;8.18;;;13.10;99.90;;;;;;5016208;28;20181;-88
2021/08/19 04:47:17;;;;;;;17.13;10.05;;;13.10;99.90;;;;;;5016343;28;20180;-87
2021/08/19 04:49:43;;;;;;;13.80;9.20;;;13.10;99.90;;;;;;5033530;28;20173;-88
2021/08/19 04:52:09;;;;;;;17.10;9.57;;;;;;;;;;5016441;28;20271;-88
2021/08/19 04:54:35;;;;;;;22.13;8.48;;;13.20;99.90;;;;;;5014874;28;20239;-86
2021/08/19 04:57:01;;;;;;;18.77;8.98;;;;;;;;;;5031340;28;20181;-86
2021/08/19 04:59:26;;;;;;;21.52;8.63;;;13.40;99.90;;;;;;5015999;28;20173;-86
2021/08/19 05:01:52;;;;;;;18.35;8.45;;;13.40;99.90;;;;;;5014233;28;20199;-88
2021/08/19 05:04:18;;;;;;;17.90;8.75;;;12.30;99.90;;;;;;5030858;28;20276;-87
2021/08/19 05:06:43;;;;;;;16.08;7.95;;;13.60;99.90;;;;;;5014691;28;20220;-89
2021/08/19 05:09:09;;;;;;;16.38;8.10;;;13.70;99.90;;;;;;5014713;28;20189;-89
2021/08/19 05:11:35;;;;;;;17.83;7.88;;;13.70;99.90;;;;;;5016285;28;20178;-87
2021/08/19 05:14:03;;;;;;;15.73;7.25;;;13.80;99.90;;;;;;5014213;28;20692;-88
2021/08/19 05:16:30;;;;;;;14.50;7.40;;;13.80;99.90;;;;;;5015775;28;20169;-88
2021/08/19 05:18:56;;;;;;;13.05;7.50;;;14.10;99.90;;;;;;5015854;28;20231;-88
2021/08/19 05:21:22;;;;;;;19.15;8.07;;;;;;;;;;5015908;28;20260;-87
2021/08/19 05:23:48;;;;;;;28.75;8.30;;;13.90;99.90;;;;;;5014590;28;20189;-89
2021/08/19 05:26:14;;;;;;;14.55;7.00;;;;;;;;;;5014294;28;20185;-88
2021/08/19 05:28:40;;;;;;;16.20;6.90;;;14.00;99.90;;;;;;5014177;28;20177;-87
2021/08/19 05:31:05;;;;;;;13.00;8.10;;;14.10;99.90;;;;;;5029593;28;20505;-87
2021/08/19 05:33:31;;;;;;;11.73;7.05;;;14.10;99.90;;;;;;5015439;28;20647;-87
2021/08/19 05:35:57;;;;;;;15.10;7.47;;;;;;;;;;5029925;28;20177;-88
2021/08/19 05:38:23;;;;;;;14.80;7.45;;;14.30;99.90;;;;;;5015422;28;20180;-88
2021/08/19 05:40:48;;;;;;;14.07;7.10;;;14.40;99.90;;;;;;5014476;28;20182;-88
2021/08/19 05:43:14;;;;;;;15.43;7.55;;;14.40;99.90;;;;;;5015952;28;20182;-86
2021/08/19 05:45:41;;;;;;;12.10;6.80;;;14.70;99.90;;;;;;5014826;28;20580;-87
2021/08/19 05:48:06;;;;;;;12.27;6.75;;;14.60;99.90;;;;;;5014259;28;20182;-88
2021/08/19 05:50:35;;;;;;;13.30;6.93;;;;;;;;;;5029231;28;20661;-87
2021/08/19 05:53:02;;;;;;;12.82;6.95;;;14.90;99.90;;;;;;5013112;28;20185;-88
2021/08/19 05:55:27;;;;;;;13.98;7.50;;;15.00;99.90;;;;;;5014171;28;20564;-88
2021/08/19 05:57:53;;;;;;;15.10;6.78;;;15.10;99.90;;;;;;5013488;28;20177;-87
2021/08/19 06:00:22;;;;;;;13.27;6.93;;;15.20;99.90;;;;;;5014399;28;20177;-86
2021/08/19 06:02:49;;;;;;;19.00;7.00;;;15.30;99.90;;;;;;5031637;28;20190;-86
2021/08/19 06:05:14;;;;;;;13.25;6.00;;;15.40;99.90;;;;;;5034670;28;20185;-87
2021/08/19 06:07:40;;;;;;;11.85;6.15;;;15.50;99.90;;;;;;5033967;28;20205;-86
2021/08/19 06:10:07;;;;;;;13.32;5.93;;;15.60;99.90;;;;;;5016404;28;20239;-87
2021/08/19 06:12:33;;;;;;;9.57;4.93;;;15.80;99.90;;;;;;5013707;28;20343;-86
2021/08/19 06:14:59;;;;;;;15.05;6.30;;;15.80;99.90;;;;;;5013402;28;20251;-85
2021/08/19 06:17:25;;;;;;;9.38;5.53;;;16.00;99.90;;;;;;5030249;28;20178;-85
2021/08/19 06:19:50;;;;;;;10.25;4.78;;;16.10;99.90;;;;;;5029984;28;20181;-86
2021/08/19 06:22:16;;;;;;;8.77;5.47;;;16.10;99.90;;;;;;5014622;28;20177;-85
2021/08/19 06:24:41;;;;;;;13.55;5.28;;;16.20;99.90;;;;;;5029785;28;20661;-86
2021/08/19 06:27:07;;;;;;;11.55;4.97;;;16.20;99.90;;;;;;5013360;28;20622;-86
2021/08/19 06:29:33;;;;;;;10.35;5.60;;;16.20;99.90;;;;;;5017124;28;20228;-86
2021/08/19 06:31:58;;;;;;;7.10;4.80;;;16.30;99.90;;;;;;5000238;28;20609;-86
2021/08/19 06:34:24;;;;;;;10.55;5.30;;;16.40;99.90;;;;;;5016480;28;20318;-87
2021/08/19 06:36:50;;;;;;;13.70;5.47;;;16.50;99.90;;;;;;5000166;28;20206;-87
2021/08/19 06:39:17;;;;;;;7.82;4.63;;;16.50;99.90;;;;;;5016337;28;20181;-87
2021/08/19 06:41:43;;;;;;;10.05;5.70;;;16.50;99.90;;;;;;5034206;28;20629;-86
2021/08/19 06:44:09;;;;;;;10.43;5.05;;;16.50;99.90;;;;;;5033744;28;20187;-87
2021/08/19 06:46:35;;;;;;;7.78;4.78;;;16.60;99.90;;;;;;5016751;28;20173;-87
2021/08/19 06:49:00;;;;;;;8.90;5.00;;;16.60;99.90;;;;;;4999714;28;20181;-86
2021/08/19 06:51:26;;;;;;;10.93;4.82;;;16.70;99.90;;;;;;5000013;28;20187;-86
2021/08/19 06:53:52;;;;;;;12.00;5.28;;;16.80;99.90;;;;;;5016933;28;20208;-88
2021/08/19 06:56:18;;;;;;;9.32;5.05;;;16.90;99.90;;;;;;5034418;28;20799;-86
2021/08/19 06:58:44;;;;;;;9.90;4.82;;;17.10;99.90;;;;;;5016314;28;20177;-85
2021/08/19 07:01:10;;;;;;;10.98;4.82;;;17.20;99.90;;;;;;5000169;28;20526;-86
2021/08/19 07:03:36;;;;;;;7.38;4.20;;;17.20;99.90;;;;;;5033311;28;20227;-84
2021/08/19 07:06:01;;;;;;;7.55;4.10;;;17.20;99.90;;;;;;5033764;28;20630;-85
2021/08/19 07:08:27;;;;;;;14.75;5.15;;;17.30;99.90;;;;;;5015930;28;20233;-85
2021/08/19 07:10:53;;;;;;;8.65;4.00;;;17.50;99.90;;;;;;5016978;28;20173;-84
2021/08/19 07:13:19;;;;;;;9.32;4.30;;;17.60;99.90;;;;;;5033269;28;20254;-84
2021/08/19 07:15:45;;;;;;;7.60;4.30;;;16.80;99.90;;;;;;5033403;28;20657;-85
2021/08/19 07:18:12;;;;;;;9.48;4.65;;;17.70;99.90;;;;;;5015991;28;20192;-84
2021/08/19 07:20:38;;;;;;;7.10;4.05;;;17.60;99.90;;;;;;4999855;28;20271;-85
2021/08/19 07:23:04;;;;;;;6.25;3.83;;;17.60;99.90;;;;;;5015997;28;20188;-86
2021/08/19 07:25:30;;;;;;;8.30;4.35;;;17.70;99.90;;;;;;5015840;28;20194;-85
2021/08/19 07:27:55;;;;;;;7.07;3.72;;;17.90;99.90;;;;;;5016004;28;20180;-85
2021/08/19 07:30:21;;;;;;;5.40;3.83;;;18.00;99.90;;;;;;5015619;28;20583;-85
2021/08/19 07:32:47;;;;;;;8.13;4.38;;;18.00;99.90;;;;;;5016276;28;20532;-87
2021/08/19 07:35:13;;;;;;;9.05;3.92;;;18.20;99.90;;;;;;5033594;28;20208;-86
2021/08/19 07:37:52;;;;;;;7.28;3.67;;;18.30;99.90;;;;;;5033447;28;20204;-87
2021/08/19 07:40:20;;;;;;;6.65;3.78;;;18.40;99.90;;;;;;5033739;28;20211;-85
2021/08/19 07:42:46;;;;;;;5.78;3.63;;;18.40;99.90;;;;;;5033527;28;20181;-88
2021/08/19 07:45:13;;;;;;;6.35;3.63;;;18.50;99.90;;;;;;5017430;28;20187;-86
2021/08/19 07:47:39;;;;;;;6.53;3.35;;;18.60;99.90;;;;;;5033903;28;20183;-86
2021/08/19 07:50:06;;;;;;;7.80;3.08;;;18.70;99.90;;;;;;4999010;28;20219;-87
2021/08/19 07:52:32;;;;;;;6.53;3.47;;;18.70;99.90;;;;;;4999524;28;20180;-88
2021/08/19 07:54:57;;;;;;;7.88;3.15;;;18.80;99.90;;;;;;5032982;28;20200;-87
2021/08/19 07:57:23;;;;;;;4.18;2.53;;;18.90;99.90;;;;;;5032628;28;20219;-86
2021/08/19 07:59:49;;;;;;;7.68;3.38;;;19.00;99.90;;;;;;5034824;28;20263;-87
2021/08/19 08:02:14;;;;;;;5.22;3.05;;;19.10;99.90;;;;;;5015664;28;20185;-87
2021/08/19 08:04:40;;;;;;;6.03;3.13;;;19.10;99.90;;;;;;5033176;28;20187;-86
2021/08/19 08:07:06;;;;;;;8.73;3.10;;;19.00;99.90;;;;;;5015816;28;20579;-86
2021/08/19 08:09:31;;;;;;;6.22;3.40;;;19.20;99.90;;;;;;5032423;28;20280;-88
2021/08/19 08:11:58;;;;;;;7.28;2.33;;;19.30;99.90;;;;;;5015503;28;20271;-87
2021/08/19 08:14:24;;;;;;;4.65;2.72;;;19.50;99.90;;;;;;5015595;28;20211;-85
2021/08/19 08:16:49;;;;;;;5.88;2.70;;;19.50;99.90;;;;;;4999393;28;20188;-86
2021/08/19 08:19:18;;;;;;;5.63;2.72;;;19.60;99.90;;;;;;5015830;28;20541;-84
2021/08/19 08:21:45;;;;;;;3.83;2.25;;;19.70;99.90;;;;;;5033468;28;20173;-85
2021/08/19 08:24:11;;;;;;;7.30;2.13;;;19.80;99.90;;;;;;5033210;28;20192;-85
2021/08/19 08:26:37;;;;;;;3.88;2.50;;;19.90;99.90;;;;;;5015371;28;20176;-86
2021/08/19 08:29:03;;;;;;;5.53;2.40;;;20.00;99.90;;;;;;5032804;28;20179;-85
2021/08/19 08:31:31;;;;;;;4.50;2.60;;;20.10;99.90;;;;;;5032865;28;20689;-85
2021/08/19 08:33:57;;;;;;;2.55;1.80;;;20.20;99.90;;;;;;5033212;28;20258;-85
2021/08/19 08:36:23;;;;;;;3.55;2.17;;;20.10;99.90;;;;;;4999092;28;20188;-86
2021/08/19 08:38:49;;;;;;;4.47;2.08;;;20.10;99.90;;;;;;4999487;28;20254;-85
2021/08/19 08:41:19;;;;;;;7.28;2.53;;;20.10;99.90;;;;;;5015587;28;20188;-85
2021/08/19 08:43:47;;;;;;;3.72;2.60;;;20.30;99.90;;;;;;5033258;28;20168;-86
2021/08/19 08:46:15;;;;;;;4.13;2.13;;;20.30;99.90;;;;;;5015724;28;20180;-85
2021/08/19 08:48:45;;;;;;;9.90;2.45;;;20.40;99.90;;;;;;5015465;28;20173;-86
2021/08/19 08:51:11;;;;;;;6.68;2.20;;;20.20;99.90;;;;;;5015822;28;20188;-86
2021/08/19 08:53:37;;;;;;;3.75;2.28;;;20.20;99.90;;;;;;5033089;28;20673;-85
2021/08/19 08:56:03;;;;;;;4.20;2.47;;;20.30;99.90;;;;;;5032917;28;20613;-91
2021/08/19 08:58:28;;;;;;;4.53;1.70;;;20.40;99.90;;;;;;5033518;28;20181;-85
2021/08/19 09:00:54;;;;;;;3.22;2.13;;;20.50;99.90;;;;;;5015180;28;20625;-86
2021/08/19 09:03:21;;;;;;;3.33;1.88;;;20.50;99.90;;;;;;5015482;28;20181;-85
2021/08/19 09:05:52;;;;;;;4.50;2.20;;;20.50;99.90;;;;;;5032821;28;20180;-85
2021/08/19 09:08:20;;;;;;;4.95;2.38;;;20.40;99.90;;;;;;5031471;28;20161;-87
2021/08/19 09:10:47;;;;;;;2.78;1.98;;;20.50;99.90;;;;;;5013381;28;20185;-87
2021/08/19 09:13:15;;;;;;;8.50;2.50;;;20.60;99.90;;;;;;5031279;28;20577;-87
2021/08/19 09:15:42;;;;;;;2.95;2.22;;;20.70;99.90;;;;;;5031210;28;20201;-88
2021/08/19 09:18:08;;;;;;;11.52;2.38;;;20.80;99.90;;;;;;5013590;28;20191;-87
2021/08/19 09:20:39;;;;;;;4.65;2.47;;;20.60;99.90;;;;;;5032206;28;20184;-87
2021/08/19 09:23:11;;;;;;;4.35;2.47;;;20.70;99.90;;;;;;5035585;28;20613;-87
2021/08/19 09:25:39;;;;;;;3.63;2.40;;;20.90;99.90;;;;;;5035610;28;20177;-88
2021/08/19 09:28:08;;;;;;;3.45;2.28;;;21.00;99.90;;;;;;5036001;28;20179;-88
2021/08/19 09:30:35;;;;;;;7.00;2.90;;;21.00;99.90;;;;;;5017847;28;20307;-87
2021/08/19 09:33:06;;;;;;;2.05;1.85;;;21.00;99.90;;;;;;5002313;28;20192;-87
2021/08/19 09:35:33;;;;;;;4.20;2.28;;;21.00;99.90;;;;;;5018710;28;20204;-87
2021/08/19 09:38:07;;;;;;;3.33;2.40;;;21.00;99.90;;;;;;5036728;28;20223;-87
2021/08/19 09:40:33;;;;;;;2.90;2.20;;;20.80;99.90;;;;;;5036428;28;20181;-89
2021/08/19 09:42:59;;;;;;;2.10;1.85;;;20.70;99.90;;;;;;5018857;28;20594;-88
2021/08/19 09:45:25;;;;;;;2.67;1.95;;;20.70;99.90;;;;;;5019561;28;20192;-87
2021/08/19 09:47:52;;;;;;;7.22;2.45;;;20.70;99.90;;;;;;5036561;28;20633;-88
2021/08/19 09:50:23;;;;;;;4.07;2.38;;;20.80;99.90;;;;;;5020674;28;20181;-84
2021/08/19 09:52:51;;;;;;;5.05;2.72;;;21.00;99.90;;;;;;5036776;28;20172;-86
2021/08/19 09:55:28;;;;;;;4.00;2.13;;;21.20;99.90;;;;;;5035979;28;20224;-87
2021/08/19 09:57:56;;;;;;;5.10;2.17;;;21.40;99.90;;;;;;5018001;28;20176;-86
2021/08/19 10:00:29;;;;;;;3.22;1.73;;;21.50;99.90;;;;;;5035708;28;20222;-88
2021/08/19 10:02:55;;;;;;;5.80;2.10;;;21.50;99.90;;;;;;5035388;28;20184;-87
2021/08/19 10:05:21;;;;;;;3.83;2.47;;;21.40;99.90;;;;;;5018265;28;20735;-86
2021/08/19 10:07:46;;;;;;;2.13;1.80;;;21.60;99.90;;;;;;5017915;28;20188;-88
2021/08/19 10:10:12;;;;;;;5.80;1.67;;;21.50;99.90;;;;;;5036150;28;20210;-87
2021/08/19 10:12:41;;;;;;;2.33;1.85;;;21.40;99.90;;;;;;5017537;28;20184;-87
2021/08/19 10:15:08;;;;;;;3.88;2.20;;;21.20;99.90;;;;;;5035468;28;20552;-87
2021/08/19 10:17:36;;;;;;;29.75;4.68;;;21.10;99.90;;;;;;5016781;28;20177;-86
2021/08/19 10:20:06;;;;;;;7.25;2.50;;;20.90;99.90;;;;;;5035802;28;20173;-88
2021/08/19 10:22:34;;;;;;;14.13;3.53;;;20.80;99.90;;;;;;5017029;28;20184;-86
2021/08/19 10:25:01;;;;;;;6.30;2.22;;;20.80;99.90;;;;;;5021488;28;20180;-85
2021/08/19 10:27:29;;;;;;;7.57;2.85;;;21.20;99.90;;;;;;5039107;28;20641;-86
2021/08/19 10:29:59;;;;;;;5.00;2.70;;;21.40;99.90;;;;;;5018362;28;20240;-86
2021/08/19 10:32:32;;;;;;;10.40;2.90;;;21.50;99.90;;;;;;5034205;28;20169;-86
2021/08/19 10:35:03;;;;;;;19.65;3.97;;;21.60;99.90;;;;;;5017853;28;20227;-85
2021/08/19 10:37:47;;;;;;;4.93;2.42;;;21.70;99.90;;;;;;5017296;28;20195;-86
2021/08/19 10:40:25;;;;;;;5.22;2.15;;;21.90;99.90;;;;;;5034653;28;20176;-86
2021/08/19 10:42:56;;;;;;;3.67;2.40;;;21.70;99.90;;;;;;5016742;28;20310;-86
2021/08/19 10:45:28;;;;;;;3.03;2.30;;;21.90;99.90;;;;;;5034796;28;20262;-87
2021/08/19 10:48:06;;;;;;;6.22;2.60;;;22.10;99.90;;;;;;5016930;28;20172;-86
2021/08/19 10:50:41;;;;;;;3.67;2.53;;;22.20;99.90;;;;;;5017256;28;20208;-85
2021/08/19 10:53:11;;;;;;;7.68;2.75;;;22.10;99.90;;;;;;5034330;28;20243;-85
2021/08/19 10:55:42;;;;;;;9.57;2.35;;;22.20;99.90;;;;;;5016278;28;20246;-85
2021/08/19 10:58:37;;;;;;;7.35;2.97;;;22.40;99.90;;;;;;5016409;28;20184;-88
2021/08/19 11:01:23;;;;;;;3.80;2.65;;;22.50;99.90;;;;;;5016432;28;20598;-85
2021/08/19 11:03:52;;;;;;;2.88;2.45;;;22.00;99.90;;;;;;5034221;28;20184;-86
2021/08/19 11:06:23;;;;;;;2.75;2.00;;;21.90;99.90;;;;;;5017476;28;20690;-86
2021/08/19 11:08:59;;;;;;;3.83;2.88;;;21.70;99.90;;;;;;5034497;28;20180;-85
2021/08/19 11:11:35;;;;;;;7.88;2.10;;;21.60;99.90;;;;;;5033853;28;20183;-86
2021/08/19 11:14:17;;;;;;;3.80;2.10;;;21.40;99.90;;;;;;5033618;28;20180;-85
2021/08/19 11:16:56;;;;;;;6.32;2.08;;;21.30;99.90;;;;;;5033657;28;20160;-86
2021/08/19 11:19:24;;;;;;;3.35;2.42;;;21.30;99.90;;;;;;5033905;28;20173;-86
2021/08/19 11:21:55;;;;;;;5.32;1.95;;;21.30;99.90;;;;;;5015774;28;20177;-86
2021/08/19 11:24:26;;;;;;;4.22;2.08;;;21.30;99.90;;;;;;5033563;28;20211;-85
2021/08/19 11:27:06;;;;;;;3.72;2.40;;;21.40;99.90;;;;;;5033067;28;20542;-85
2021/08/19 11:29:38;;;;;;;3.28;2.40;;;21.30;99.90;;;;;;5033532;28;20252;-87
2021/08/19 11:32:15;;;;;;;3.00;2.00;;;21.40;99.90;;;;;;5033680;28;20168;-86
2021/08/19 11:34:52;;;;;;;3.17;2.10;;;21.40;99.90;;;;;;5033031;28;20673;-86
2021/08/19 11:37:31;;;;;;;5.43;3.00;;;21.40;99.90;;;;;;5015695;28;20242;-86
2021/08/19 11:39:59;;;;;;;2.38;2.10;;;21.40;99.90;;;;;;5015970;28;20267;-85
2021/08/19 11:42:29;;;;;;;5.00;1.83;;;21.60;99.90;;;;;;5015771;28;20181;-85
2021/08/19 11:45:21;;;;;;;4.70;2.10;;;21.60;99.90;;;;;;5015736;28;20704;-87
2021/08/19 11:47:49;;;;;;;2.75;1.90;;;21.60;99.90;;;;;;5033258;28;20176;-86
2021/08/19 11:50:20;;;;;;;14.07;2.20;;;20.70;99.90;;;;;;5015620;28;20267;-85
2021/08/19 11:52:46;;;;;;;2.90;2.08;;;22.10;99.90;;;;;;5015837;28;20185;-86
2021/08/19 11:55:12;;;;;;;4.63;2.03;;;21.90;99.90;;;;;;5016094;28;20208;-85
2021/08/19 11:57:37;;;;;;;2.45;2.25;;;21.90;99.90;;;;;;5033165;28;20584;-85
2021/08/19 12:00:08;;;;;;;5.90;2.05;;;22.20;99.90;;;;;;5015722;28;20259;-85
2021/08/19 12:02:33;;;;;;;4.43;2.08;;;22.30;99.90;;;;;;5015958;28;20185;-87
2021/08/19 12:05:05;;;;;;;7.15;2.67;;;22.30;99.90;;;;;;5016227;28;20717;-85
2021/08/19 12:07:32;;;;;;;7.05;2.28;;;22.30;99.90;;;;;;5037030;28;20256;-84
2021/08/19 12:09:59;;;;;;;3.38;2.20;;;22.60;99.90;;;;;;5020931;28;20184;-83
2021/08/19 12:12:27;;;;;;;3.15;2.10;;;22.60;99.90;;;;;;5002670;28;20188;-85
2021/08/19 12:14:53;;;;;;;3.60;2.17;;;22.80;99.90;;;;;;4999316;28;20212;-86
2021/08/19 12:17:19;;;;;;;6.88;2.67;;;22.70;99.90;;;;;;4999569;28;20204;-85
2021/08/19 12:19:45;;;;;;;2.53;2.05;;;22.80;99.90;;;;;;5015772;28;20172;-85
2021/08/19 12:22:11;;;;;;;11.30;2.42;;;22.80;99.90;;;;;;5016505;28;20192;-85
2021/08/19 12:24:41;;;;;;;3.22;2.42;;;22.70;99.90;;;;;;5001673;28;20187;-86
2021/08/19 12:27:09;;;;;;;4.78;2.75;;;22.70;99.90;;;;;;5016048;28;20176;-86
2021/08/19 12:29:59;;;;;;;5.45;2.08;;;22.60;99.90;;;;;;5016449;28;20599;-85
2021/08/19 12:32:34;;;;;;;4.45;2.03;;;22.80;99.90;;;;;;5015438;28;20180;-86
2021/08/19 12:35:11;;;;;;;7.07;2.35;;;22.80;99.90;;;;;;5015291;28;20207;-87
2021/08/19 12:37:51;;;;;;;3.97;2.60;;;22.60;99.90;;;;;;5033416;28;20203;-87
2021/08/19 12:40:17;;;;;;;2.67;2.42;;;22.50;99.90;;;;;;5030424;28;20626;-85
2021/08/19 12:42:47;;;;;;;6.75;2.35;;;22.30;99.90;;;;;;5015460;28;20271;-87
2021/08/19 12:45:30;;;;;;;3.80;2.45;;;22.20;99.90;;;;;;5032851;28;20187;-87
2021/08/19 12:48:10;;;;;;;3.60;2.35;;;22.00;99.90;;;;;;5014976;28;20181;-87